Time;durP1;ratioP1;P1;durP2;ratioP2;P2;SDS_P1;SDS_P2;PMS_P1;PMS_P2;Temp;Humidity;BMP_temperature;BMP_pressure;BME280_temperature;BME280_humidity;BME280_pressure;Samples;Min_cycle;Max_cycle;Signal;HPM_P1;HPM_P2
2023/12/24 00:02:09;;;;;;;23.13;5.03;;;9.00;99.90;;;;;;5094224;28;20078;-75
2023/12/24 00:04:35;;;;;;;31.73;4.10;;;9.00;99.90;;;;;;5094420;28;20282;-75
2023/12/24 00:07:01;;;;;;;29.37;3.97;;;9.00;99.90;;;;;;5094471;28;20056;-75
2023/12/24 00:09:26;;;;;;;22.37;4.60;;;9.00;99.90;;;;;;5094268;28;20094;-75
2023/12/24 00:11:52;;;;;;;21.07;3.77;;;9.00;99.90;;;;;;5093895;28;20126;-75
2023/12/24 00:14:18;;;;;;;24.67;4.43;;;9.00;99.90;;;;;;5094817;28;20055;-75
2023/12/24 00:16:44;;;;;;;21.80;4.30;;;9.00;99.90;;;;;;5094426;28;20079;-75
2023/12/24 00:19:09;;;;;;;21.80;4.57;;;9.00;99.90;;;;;;5094199;28;20472;-75
2023/12/24 00:21:35;;;;;;;17.23;4.30;;;9.00;99.90;;;;;;5094659;28;20589;-75
2023/12/24 00:24:01;;;;;;;28.90;4.23;;;9.00;99.90;;;;;;5093084;28;20060;-75
2023/12/24 00:26:27;;;;;;;28.97;5.20;;;9.00;99.90;;;;;;5094560;28;20044;-75
2023/12/24 00:28:52;;;;;;;24.20;4.83;;;9.00;99.90;;;;;;5094066;28;20047;-75
2023/12/24 00:31:18;;;;;;;21.20;4.23;;;9.00;99.90;;;;;;5092873;28;20044;-75
2023/12/24 00:33:44;;;;;;;24.53;4.30;;;9.00;99.90;;;;;;5094734;28;20097;-75
2023/12/24 00:36:09;;;;;;;29.20;4.40;;;9.00;99.90;;;;;;5094415;28;20086;-75
2023/12/24 00:38:35;;;;;;;24.33;4.50;;;9.00;99.90;;;;;;5075659;28;20048;-76
2023/12/24 00:41:01;;;;;;;24.03;3.73;;;9.00;99.90;;;;;;5093724;28;20048;-75
2023/12/24 00:43:26;;;;;;;17.80;3.40;;;9.00;99.90;;;;;;5093134;28;20105;-75
2023/12/24 00:45:52;;;;;;;29.30;4.33;;;9.00;99.90;;;;;;5092597;28;20097;-75
2023/12/24 00:48:18;;;;;;;23.37;4.50;;;9.00;99.90;;;;;;5092421;28;20077;-75
2023/12/24 00:50:43;;;;;;;17.87;3.47;;;9.00;99.90;;;;;;5093931;28;20047;-76
2023/12/24 00:53:09;;;;;;;24.43;4.70;;;9.00;99.90;;;;;;5092214;28;20055;-76
2023/12/24 00:55:35;;;;;;;21.57;4.37;;;9.00;99.90;;;;;;5092300;28;20044;-75
2023/12/24 00:58:01;;;;;;;25.70;4.20;;;9.00;99.90;;;;;;5094201;28;20127;-75
2023/12/24 01:00:26;;;;;;;33.70;5.13;;;9.00;99.90;;;;;;5093867;28;20503;-76
2023/12/24 01:02:52;;;;;;;27.13;4.23;;;9.00;99.90;;;;;;5093660;28;20472;-76
2023/12/24 01:05:18;;;;;;;28.77;5.33;;;9.00;99.90;;;;;;5093658;28;20048;-76
2023/12/24 01:07:44;;;;;;;26.97;5.33;;;9.00;99.90;;;;;;5092492;28;20286;-76
2023/12/24 01:10:10;;;;;;;22.93;4.37;;;9.00;99.90;;;;;;5092645;28;20056;-76
2023/12/24 01:12:37;;;;;;;22.60;4.10;;;9.00;99.90;;;;;;5096488;28;20051;-76
2023/12/24 01:15:03;;;;;;;29.33;4.83;;;9.00;99.90;;;;;;5097631;28;20093;-76
2023/12/24 01:17:29;;;;;;;24.30;4.67;;;9.00;99.90;;;;;;5097553;28;20646;-76
2023/12/24 01:19:56;;;;;;;29.70;4.97;;;9.00;99.90;;;;;;5096589;28;20286;-76
2023/12/24 01:22:22;;;;;;;29.63;4.53;;;9.00;99.90;;;;;;5097481;28;20484;-76
2023/12/24 01:24:48;;;;;;;23.87;4.90;;;9.00;99.90;;;;;;5097427;28;20282;-76
2023/12/24 01:27:14;;;;;;;23.30;5.20;;;9.00;99.90;;;;;;5097738;28;20079;-76
2023/12/24 01:29:39;;;;;;;22.70;5.40;;;9.00;99.90;;;;;;5098182;28;20052;-76
2023/12/24 01:32:05;;;;;;;26.33;4.37;;;9.10;99.90;;;;;;5096360;28;20464;-75
2023/12/24 01:34:31;;;;;;;21.93;4.20;;;9.00;99.90;;;;;;5096909;28;20067;-75
2023/12/24 01:36:57;;;;;;;24.33;4.27;;;9.10;99.90;;;;;;5097117;28;20051;-75
2023/12/24 01:39:22;;;;;;;25.77;4.97;;;9.00;99.90;;;;;;5097697;28;20051;-75
2023/12/24 01:41:48;;;;;;;24.33;4.67;;;9.00;99.90;;;;;;5096536;28;20166;-75
2023/12/24 01:44:14;;;;;;;24.50;4.43;;;9.00;99.90;;;;;;5097135;28;20051;-75
2023/12/24 01:46:40;;;;;;;25.27;4.00;;;9.10;99.90;;;;;;5096977;28;20119;-75
2023/12/24 01:49:07;;;;;;;27.70;4.73;;;9.00;99.90;;;;;;5096074;28;20098;-75
2023/12/24 01:51:34;;;;;;;37.43;4.77;;;9.10;99.90;;;;;;5095780;28;20278;-75
2023/12/24 01:54:01;;;;;;;31.77;4.67;;;9.00;99.90;;;;;;5096879;28;20278;-75
2023/12/24 01:56:27;;;;;;;19.00;4.50;;;9.00;99.90;;;;;;5097341;28;20294;-75
2023/12/24 01:58:54;;;;;;;23.03;4.10;;;9.10;99.90;;;;;;5097078;28;20747;-75
2023/12/24 02:01:20;;;;;;;27.13;4.83;;;9.10;99.90;;;;;;5095799;28;20351;-75
2023/12/24 02:03:46;;;;;;;25.53;5.40;;;9.10;99.90;;;;;;5097301;28;20314;-75
2023/12/24 02:06:14;;;;;;;25.27;4.30;;;9.10;99.90;;;;;;5096644;28;20055;-75
2023/12/24 02:08:40;;;;;;;22.70;4.83;;;9.10;99.90;;;;;;5096689;28;20051;-76
2023/12/24 02:11:06;;;;;;;25.53;4.30;;;9.10;99.90;;;;;;5097127;28;20278;-76
2023/12/24 02:13:33;;;;;;;21.80;4.30;;;9.10;99.90;;;;;;5097353;28;20314;-75
2023/12/24 02:16:02;;;;;;;23.03;3.53;;;9.10;99.90;;;;;;5096489;28;20347;-76
2023/12/24 02:18:28;;;;;;;28.13;5.00;;;9.10;99.90;;;;;;5096531;28;20362;-75
2023/12/24 02:21:03;;;;;;;20.40;4.57;;;9.10;99.90;;;;;;5095735;28;20385;-76
2023/12/24 02:23:29;;;;;;;20.38;3.47;;;9.10;99.90;;;;;;5078332;28;20044;-76
2023/12/24 02:25:59;;;;;;;25.80;4.23;;;9.10;99.90;;;;;;5095687;28;20040;-76
2023/12/24 02:28:26;;;;;;;28.70;4.20;;;9.10;99.90;;;;;;5096531;28;20808;-76
2023/12/24 02:30:56;;;;;;;28.47;4.07;;;9.10;99.90;;;;;;5096041;28;20611;-76
2023/12/24 02:33:24;;;;;;;27.87;4.60;;;9.10;99.90;;;;;;5096849;28;20277;-76
2023/12/24 02:35:51;;;;;;;27.23;4.97;;;9.10;99.90;;;;;;5095874;28;20622;-76
2023/12/24 02:38:17;;;;;;;31.40;4.50;;;9.10;99.90;;;;;;5095751;28;20357;-76
2023/12/24 02:40:42;;;;;;;29.83;4.77;;;9.20;99.90;;;;;;5095048;28;20877;-76
2023/12/24 02:43:08;;;;;;;26.13;5.37;;;9.20;99.90;;;;;;5096535;28;20048;-76
2023/12/24 02:45:35;;;;;;;28.00;5.00;;;9.20;99.90;;;;;;5095920;28;20506;-76
2023/12/24 02:48:00;;;;;;;27.70;4.93;;;9.20;99.90;;;;;;5095565;28;20544;-76
2023/12/24 02:50:26;;;;;;;24.00;4.30;;;9.20;99.90;;;;;;5078870;28;20380;-76
2023/12/24 02:52:52;;;;;;;31.03;5.20;;;9.20;99.90;;;;;;5094797;28;20044;-76
2023/12/24 02:55:18;;;;;;;28.90;5.77;;;9.20;99.90;;;;;;5096017;28;20063;-76
2023/12/24 02:57:43;;;;;;;29.90;4.43;;;9.20;99.90;;;;;;5096182;28;20465;-76
2023/12/24 03:00:11;;;;;;;35.70;5.60;;;9.20;99.90;;;;;;5095616;28;20048;-76
2023/12/24 03:02:37;;;;;;;29.77;5.30;;;9.30;99.90;;;;;;5094635;28;20044;-76
2023/12/24 03:05:02;;;;;;;27.37;4.17;;;9.20;99.90;;;;;;5095495;28;20848;-76
2023/12/24 03:07:28;;;;;;;23.93;5.27;;;9.20;99.90;;;;;;5095576;28;20048;-76
2023/12/24 03:09:54;;;;;;;23.10;4.50;;;9.30;99.90;;;;;;5094429;28;20388;-76
2023/12/24 03:12:20;;;;;;;21.03;4.53;;;9.20;99.90;;;;;;5095396;28;20055;-76
2023/12/24 03:14:46;;;;;;;19.43;4.73;;;9.30;99.90;;;;;;5094585;28;20618;-76
2023/12/24 03:17:12;;;;;;;19.73;4.67;;;9.30;99.90;;;;;;5095175;28;20044;-77
2023/12/24 03:19:38;;;;;;;17.43;4.23;;;9.30;99.90;;;;;;5095283;28;20676;-76
2023/12/24 03:22:04;;;;;;;21.77;4.83;;;9.30;99.90;;;;;;5095217;28;20040;-76
2023/12/24 03:24:29;;;;;;;18.43;5.33;;;9.40;99.90;;;;;;5095269;28;20434;-76
2023/12/24 03:26:55;;;;;;;15.43;4.63;;;9.40;99.90;;;;;;5093915;28;20127;-76
2023/12/24 03:29:22;;;;;;;20.83;5.13;;;9.30;99.90;;;;;;5095017;28;20492;-76
2023/12/24 03:31:47;;;;;;;15.33;4.20;;;9.40;99.90;;;;;;5095851;28;20044;-76
2023/12/24 03:34:14;;;;;;;17.93;4.63;;;9.30;99.90;;;;;;5094057;28;20611;-76
2023/12/24 03:36:40;;;;;;;16.87;5.27;;;9.30;99.90;;;;;;5094113;28;20476;-76
2023/12/24 03:39:06;;;;;;;16.47;4.60;;;9.30;99.90;;;;;;5094860;28;20278;-76
2023/12/24 03:41:32;;;;;;;16.97;4.90;;;9.40;99.90;;;;;;5095345;28;20289;-76
2023/12/24 03:43:58;;;;;;;15.00;4.17;;;9.40;99.90;;;;;;5094287;28;20052;-76
2023/12/24 03:46:24;;;;;;;15.57;4.47;;;9.40;99.90;;;;;;5094745;28;20051;-76
2023/12/24 03:48:49;;;;;;;13.70;4.67;;;9.40;99.90;;;;;;5094700;28;20109;-76
2023/12/24 03:51:15;;;;;;;13.93;4.53;;;9.40;99.90;;;;;;5095396;28;20044;-76
2023/12/24 03:53:41;;;;;;;13.27;4.57;;;9.40;99.90;;;;;;5094900;28;20480;-76
2023/12/24 03:56:09;;;;;;;15.30;5.13;;;9.40;99.90;;;;;;5094485;28;20048;-76
2023/12/24 03:58:35;;;;;;;13.50;5.20;;;9.40;99.90;;;;;;5095169;28;20434;-76
2023/12/24 04:01:01;;;;;;;11.33;4.77;;;9.40;99.90;;;;;;5094319;28;20282;-76
2023/12/24 04:03:26;;;;;;;10.70;4.87;;;9.40;99.90;;;;;;5094512;28;20061;-76
2023/12/24 04:05:52;;;;;;;15.60;4.70;;;9.50;99.90;;;;;;5094613;28;20139;-76
2023/12/24 04:08:18;;;;;;;13.50;4.87;;;9.40;99.90;;;;;;5094077;28;20460;-76
2023/12/24 04:10:44;;;;;;;11.80;3.83;;;9.40;99.90;;;;;;5094855;28;20077;-76
2023/12/24 04:13:09;;;;;;;15.70;4.70;;;9.50;99.90;;;;;;5094240;28;20040;-76
2023/12/24 04:15:35;;;;;;;14.80;4.10;;;9.50;99.90;;;;;;5093257;28;20289;-76
2023/12/24 04:18:01;;;;;;;12.63;4.53;;;9.40;99.90;;;;;;5093736;28;20097;-76
2023/12/24 04:20:27;;;;;;;13.63;3.80;;;9.50;99.90;;;;;;5092931;28;20395;-76
2023/12/24 04:22:53;;;;;;;13.20;3.93;;;9.50;99.90;;;;;;5094135;28;20307;-76
2023/12/24 04:25:19;;;;;;;13.77;3.80;;;9.40;99.90;;;;;;5094175;28;20361;-76
2023/12/24 04:27:45;;;;;;;16.83;3.97;;;9.50;99.90;;;;;;5092797;28;20043;-76
2023/12/24 04:30:11;;;;;;;14.87;4.33;;;9.40;99.90;;;;;;5092823;28;20281;-76
2023/12/24 04:32:37;;;;;;;12.33;4.23;;;9.50;99.90;;;;;;5094856;28;20425;-76
2023/12/24 04:35:04;;;;;;;14.13;4.47;;;9.50;99.90;;;;;;5092967;28;20295;-76
2023/12/24 04:37:30;;;;;;;11.53;3.63;;;9.50;99.90;;;;;;5092744;28;20040;-76
2023/12/24 04:39:55;;;;;;;10.13;3.50;;;9.50;99.90;;;;;;5093865;28;20288;-76
2023/12/24 04:42:21;;;;;;;11.67;4.57;;;9.50;99.90;;;;;;5092554;28;20062;-75
2023/12/24 04:44:47;;;;;;;11.47;4.43;;;9.60;99.90;;;;;;5093732;28;20102;-75
2023/12/24 04:47:12;;;;;;;17.37;5.23;;;9.60;99.90;;;;;;5093321;28;20051;-76
2023/12/24 04:49:38;;;;;;;16.87;5.03;;;9.60;99.90;;;;;;5093582;28;20048;-75
2023/12/24 04:52:04;;;;;;;16.03;4.53;;;9.60;99.90;;;;;;5093228;28;20048;-75
2023/12/24 04:54:30;;;;;;;14.80;4.87;;;9.60;99.90;;;;;;5076023;28;20040;-75
2023/12/24 04:56:56;;;;;;;20.23;4.53;;;9.60;99.90;;;;;;5093628;28;20294;-75
2023/12/24 04:59:21;;;;;;;15.50;5.17;;;9.60;99.90;;;;;;5093647;28;20075;-75
2023/12/24 05:01:50;;;;;;;17.93;4.80;;;9.60;99.90;;;;;;5093755;28;20047;-75
2023/12/24 05:04:16;;;;;;;20.17;5.20;;;9.60;99.90;;;;;;5093666;28;20047;-75
2023/12/24 05:06:42;;;;;;;24.87;5.20;;;9.60;99.90;;;;;;5093213;28;20416;-75
2023/12/24 05:09:07;;;;;;;20.33;5.70;;;9.60;99.90;;;;;;5092943;28;20048;-75
2023/12/24 05:11:33;;;;;;;24.90;5.30;;;9.60;99.90;;;;;;5093584;28;20127;-75
2023/12/24 05:14:00;;;;;;;26.57;5.10;;;9.60;99.90;;;;;;5092655;28;20051;-76
2023/12/24 05:16:26;;;;;;;26.97;4.60;;;9.60;99.90;;;;;;5092315;28;20040;-75
2023/12/24 05:18:51;;;;;;;21.70;4.70;;;9.70;99.90;;;;;;5109313;28;20850;-75
2023/12/24 05:21:17;;;;;;;27.73;5.30;;;9.70;99.90;;;;;;5092545;28;20139;-75
2023/12/24 05:23:43;;;;;;;23.23;5.63;;;9.70;99.90;;;;;;5092214;28;20426;-75
2023/12/24 05:26:09;;;;;;;26.57;5.13;;;9.70;99.90;;;;;;5093365;28;20040;-75
2023/12/24 05:28:35;;;;;;;30.43;5.13;;;9.70;99.90;;;;;;5092241;28;20051;-75
2023/12/24 05:31:00;;;;;;;30.27;5.60;;;9.70;99.90;;;;;;5093404;28;20047;-75
2023/12/24 05:33:26;;;;;;;25.47;4.93;;;9.70;99.90;;;;;;5093424;28;20127;-75
2023/12/24 05:35:52;;;;;;;30.10;4.83;;;9.70;99.90;;;;;;5092076;28;20052;-76
2023/12/24 05:38:19;;;;;;;23.87;4.73;;;9.70;99.90;;;;;;5075411;28;20048;-76
2023/12/24 05:40:45;;;;;;;26.40;4.23;;;9.70;99.90;;;;;;5093301;28;20484;-76
2023/12/24 05:43:10;;;;;;;39.63;4.93;;;9.80;99.90;;;;;;5093273;28;20285;-76
2023/12/24 05:45:37;;;;;;;31.97;5.20;;;9.70;99.90;;;;;;5092348;28;20293;-76
2023/12/24 05:48:03;;;;;;;26.77;4.70;;;9.70;99.90;;;;;;5075667;28;20052;-76
2023/12/24 05:50:30;;;;;;;30.83;4.50;;;9.80;99.90;;;;;;5092344;28;20621;-76
2023/12/24 05:52:55;;;;;;;23.23;4.23;;;9.80;99.90;;;;;;5093771;28;20280;-76
2023/12/24 05:55:21;;;;;;;26.13;4.57;;;9.80;99.90;;;;;;5093196;28;20282;-76
2023/12/24 05:57:47;;;;;;;38.77;4.63;;;9.80;99.90;;;;;;5092040;28;20044;-76
2023/12/24 06:00:13;;;;;;;32.83;5.23;;;9.80;99.90;;;;;;5096707;28;20044;-76
2023/12/24 06:02:39;;;;;;;28.73;4.57;;;9.80;99.90;;;;;;5095876;28;20047;-76
2023/12/24 06:05:05;;;;;;;28.33;4.70;;;9.80;99.90;;;;;;5096747;28;20281;-76
2023/12/24 06:07:31;;;;;;;30.73;4.37;;;9.80;99.90;;;;;;5097255;28;20048;-76
2023/12/24 06:09:57;;;;;;;23.37;4.27;;;9.80;99.90;;;;;;5078876;28;20279;-76
2023/12/24 06:12:22;;;;;;;21.67;4.37;;;9.90;99.90;;;;;;5078543;28;20284;-76
2023/12/24 06:14:48;;;;;;;31.20;4.43;;;9.80;99.90;;;;;;5096583;28;20052;-76
2023/12/24 06:17:14;;;;;;;24.87;3.77;;;9.90;99.90;;;;;;5096983;28;20505;-76
2023/12/24 06:19:40;;;;;;;30.00;4.73;;;9.90;99.90;;;;;;5095269;28;20043;-76
2023/12/24 06:22:05;;;;;;;26.30;3.87;;;9.90;99.90;;;;;;5095467;28;20079;-76
2023/12/24 06:24:31;;;;;;;29.17;4.93;;;9.90;99.90;;;;;;5096323;28;20113;-76
2023/12/24 06:26:57;;;;;;;23.47;4.13;;;9.90;99.90;;;;;;5078939;28;20142;-76
2023/12/24 06:29:23;;;;;;;27.40;4.50;;;9.90;99.90;;;;;;5078415;28;20044;-76
2023/12/24 06:31:48;;;;;;;29.67;4.67;;;9.90;99.90;;;;;;5094710;28;20051;-76
2023/12/24 06:34:14;;;;;;;25.70;3.90;;;9.90;99.90;;;;;;5095023;28;20078;-76
2023/12/24 06:36:40;;;;;;;23.50;3.23;;;9.90;99.90;;;;;;5095093;28;20051;-76
2023/12/24 06:39:05;;;;;;;29.50;4.60;;;9.90;99.90;;;;;;5096048;28;20054;-76
2023/12/24 06:41:31;;;;;;;30.43;3.83;;;9.90;99.90;;;;;;5095972;28;20134;-76
2023/12/24 06:43:57;;;;;;;27.50;5.00;;;10.00;99.90;;;;;;5096853;28;20153;-76
2023/12/24 06:46:24;;;;;;;24.20;3.93;;;9.90;99.90;;;;;;5095904;28;20040;-76
2023/12/24 06:48:53;;;;;;;23.57;3.87;;;9.90;99.90;;;;;;5094935;28;20297;-76
2023/12/24 06:51:19;;;;;;;25.67;4.30;;;9.90;99.90;;;;;;5094338;28;20770;-76
2023/12/24 06:53:45;;;;;;;20.27;3.57;;;10.00;99.90;;;;;;5095768;28;20274;-76
2023/12/24 06:56:11;;;;;;;29.60;5.03;;;10.00;99.90;;;;;;5096203;28;20488;-76
2023/12/24 06:58:36;;;;;;;22.13;3.90;;;10.00;99.90;;;;;;5095126;28;20376;-76
2023/12/24 07:01:02;;;;;;;21.03;4.33;;;10.00;99.90;;;;;;5095647;28;20048;-76
2023/12/24 07:03:28;;;;;;;23.27;4.53;;;10.00;99.90;;;;;;5095594;28;20098;-76
2023/12/24 07:05:54;;;;;;;19.03;3.30;;;10.00;99.90;;;;;;5095608;28;20059;-76
2023/12/24 07:08:23;;;;;;;26.83;4.60;;;10.00;99.90;;;;;;5095503;28;20127;-76
2023/12/24 07:10:48;;;;;;;23.93;4.00;;;10.10;99.90;;;;;;5095193;28;20282;-76
2023/12/24 07:13:14;;;;;;;26.80;4.27;;;10.00;99.90;;;;;;5094228;28;20653;-76
2023/12/24 07:15:42;;;;;;;25.03;4.10;;;10.10;99.90;;;;;;5094156;28;20040;-77
2023/12/24 07:18:08;;;;;;;29.07;3.83;;;10.10;99.90;;;;;;5095887;28;20377;-77
2023/12/24 07:20:34;;;;;;;25.60;4.40;;;10.10;99.90;;;;;;5095287;28;20282;-77
2023/12/24 07:23:00;;;;;;;19.53;4.03;;;10.10;99.90;;;;;;5095815;28;20048;-76
2023/12/24 07:25:26;;;;;;;19.70;3.33;;;10.20;99.90;;;;;;5077208;28;20285;-76
2023/12/24 07:27:51;;;;;;;20.57;3.43;;;10.10;99.90;;;;;;5095431;28;20044;-77
2023/12/24 07:30:17;;;;;;;22.27;4.20;;;10.10;99.90;;;;;;5095667;28;20411;-77
2023/12/24 07:32:46;;;;;;;25.67;3.83;;;10.10;99.90;;;;;;5095050;28;20048;-76
2023/12/24 07:35:12;;;;;;;25.47;4.50;;;10.20;99.90;;;;;;5094000;28;20054;-77
2023/12/24 07:37:40;;;;;;;27.43;5.23;;;10.20;99.90;;;;;;5094843;28;20290;-76
2023/12/24 07:40:09;;;;;;;19.43;3.60;;;10.20;99.90;;;;;;5094925;28;20331;-76
2023/12/24 07:42:36;;;;;;;25.80;4.03;;;10.20;99.90;;;;;;5093870;28;20286;-76
2023/12/24 07:45:05;;;;;;;24.00;4.40;;;10.20;99.90;;;;;;5094831;28;20335;-76
2023/12/24 07:47:31;;;;;;;25.70;3.60;;;10.20;99.90;;;;;;5094511;28;20777;-77
2023/12/24 07:49:57;;;;;;;24.17;4.47;;;10.20;99.90;;;;;;5094745;28;20355;-77
2023/12/24 07:52:23;;;;;;;30.07;5.77;;;10.20;99.90;;;;;;5076654;28;20059;-77
2023/12/24 07:54:48;;;;;;;32.77;4.17;;;10.20;99.90;;;;;;5093667;28;20040;-77
2023/12/24 07:57:14;;;;;;;20.97;3.70;;;10.30;99.90;;;;;;5093907;28;20123;-77
2023/12/24 07:59:40;;;;;;;24.87;4.13;;;10.20;99.90;;;;;;5094559;28;20044;-77
2023/12/24 08:02:06;;;;;;;20.13;4.67;;;10.30;99.90;;;;;;5094280;28;20484;-77
2023/12/24 08:04:32;;;;;;;26.13;4.00;;;10.30;99.90;;;;;;5094436;28;20327;-77
2023/12/24 08:06:58;;;;;;;25.50;4.23;;;10.20;99.90;;;;;;5094554;28;20468;-77
2023/12/24 08:09:25;;;;;;;24.03;4.17;;;10.20;99.90;;;;;;5094869;28;20384;-77
2023/12/24 08:11:51;;;;;;;26.73;4.30;;;10.30;99.90;;;;;;5093384;28;20060;-76
2023/12/24 08:14:17;;;;;;;24.90;3.93;;;10.30;99.90;;;;;;5094317;28;20395;-76
2023/12/24 08:16:43;;;;;;;26.30;4.10;;;10.30;99.90;;;;;;5094100;28;20075;-76
2023/12/24 08:19:09;;;;;;;20.80;4.40;;;10.30;99.90;;;;;;5093225;28;20055;-76
2023/12/24 08:21:34;;;;;;;27.33;5.10;;;10.30;99.90;;;;;;5093279;28;20052;-76
2023/12/24 08:24:00;;;;;;;20.13;4.10;;;10.40;99.90;;;;;;5093234;28;20083;-76
2023/12/24 08:26:26;;;;;;;26.53;4.40;;;10.30;99.90;;;;;;5094101;28;20040;-76
2023/12/24 08:28:52;;;;;;;22.27;4.23;;;10.40;99.90;;;;;;5094644;28;20130;-76
2023/12/24 08:31:18;;;;;;;21.57;4.37;;;10.40;99.90;;;;;;5093796;28;20515;-76
2023/12/24 08:33:43;;;;;;;25.77;5.00;;;10.30;99.90;;;;;;5093949;28;20318;-76
2023/12/24 08:36:10;;;;;;;28.30;4.53;;;10.40;99.90;;;;;;5092904;28;20046;-76
2023/12/24 08:38:36;;;;;;;22.27;4.40;;;10.40;99.90;;;;;;5094492;28;20546;-76
2023/12/24 08:41:02;;;;;;;24.37;4.33;;;10.40;99.90;;;;;;5092721;28;20345;-76
2023/12/24 08:43:28;;;;;;;26.53;4.87;;;10.40;99.90;;;;;;5092881;28;20098;-76
2023/12/24 08:45:59;;;;;;;29.87;4.87;;;10.40;99.90;;;;;;5093782;28;20320;-76
2023/12/24 08:48:24;;;;;;;28.20;4.27;;;10.40;99.90;;;;;;5093735;28;20056;-76
2023/12/24 08:50:50;;;;;;;22.37;3.70;;;10.50;99.90;;;;;;5093837;28;20274;-76
2023/12/24 08:53:16;;;;;;;25.50;4.30;;;10.50;99.90;;;;;;5093743;28;20048;-76
2023/12/24 08:55:42;;;;;;;23.80;4.10;;;10.50;99.90;;;;;;5093724;28;20052;-75
2023/12/24 08:58:07;;;;;;;26.07;4.97;;;10.50;99.90;;;;;;5092419;28;20047;-76
2023/12/24 09:00:33;;;;;;;22.43;3.97;;;10.50;99.90;;;;;;5093696;28;20138;-75
2023/12/24 09:02:59;;;;;;;32.80;4.07;;;10.50;99.90;;;;;;5093696;28;20048;-76
2023/12/24 09:05:25;;;;;;;21.20;4.23;;;10.60;99.90;;;;;;5093669;28;20048;-76
2023/12/24 09:07:50;;;;;;;20.80;3.90;;;10.60;99.90;;;;;;5092396;28;20135;-76
2023/12/24 09:10:17;;;;;;;24.50;3.57;;;10.60;99.90;;;;;;5093640;28;20438;-76
2023/12/24 09:12:43;;;;;;;21.67;3.83;;;10.60;99.90;;;;;;5076576;28;20392;-77
2023/12/24 09:15:09;;;;;;;23.13;4.17;;;10.70;99.90;;;;;;5092375;28;20282;-76
2023/12/24 09:17:35;;;;;;;18.90;3.50;;;10.60;99.90;;;;;;5093441;28;20050;-76
2023/12/24 09:20:00;;;;;;;23.30;3.27;;;10.60;99.90;;;;;;5093451;28;20365;-76
2023/12/24 09:22:26;;;;;;;19.17;3.47;;;10.60;99.90;;;;;;5092570;28;20044;-76
2023/12/24 09:24:52;;;;;;;19.43;3.57;;;10.70;99.90;;;;;;5093134;28;20476;-77
2023/12/24 09:27:17;;;;;;;26.67;4.53;;;10.70;99.90;;;;;;5094671;28;20119;-73
2023/12/24 09:29:43;;;;;;;23.90;3.60;;;10.70;99.90;;;;;;5092680;28;20432;-73
2023/12/24 09:32:09;;;;;;;19.70;3.47;;;10.70;99.90;;;;;;5094060;28;20545;-71
2023/12/24 09:34:34;;;;;;;22.53;3.83;;;10.70;99.90;;;;;;5097878;28;20044;-72
2023/12/24 09:37:00;;;;;;;20.43;3.77;;;10.70;99.90;;;;;;5097227;28;20044;-72
2023/12/24 09:39:26;;;;;;;17.90;3.60;;;10.70;99.90;;;;;;5097245;28;20482;-72
2023/12/24 09:41:53;;;;;;;22.00;3.60;;;10.80;99.90;;;;;;5097136;28;20051;-74
2023/12/24 09:44:19;;;;;;;19.37;3.53;;;10.80;99.90;;;;;;5097168;28;20040;-73
2023/12/24 09:46:45;;;;;;;24.93;4.27;;;10.80;99.90;;;;;;5097395;28;20274;-72
2023/12/24 09:49:10;;;;;;;20.33;3.77;;;10.80;99.90;;;;;;5096038;28;20055;-72
2023/12/24 09:51:41;;;;;;;23.87;4.70;;;10.80;99.90;;;;;;5097023;28;20144;-73
2023/12/24 09:54:07;;;;;;;25.50;4.03;;;10.80;99.90;;;;;;5096966;28;20181;-73
2023/12/24 09:56:33;;;;;;;25.27;4.83;;;10.80;99.90;;;;;;5096518;28;20774;-72
2023/12/24 09:58:59;;;;;;;20.67;3.67;;;10.80;99.90;;;;;;5095268;28;20274;-73
2023/12/24 10:01:25;;;;;;;27.07;5.50;;;10.80;99.90;;;;;;5096763;28;20054;-76
2023/12/24 10:03:50;;;;;;;18.57;3.03;;;10.80;99.90;;;;;;5095757;28;20079;-73
2023/12/24 10:06:16;;;;;;;18.73;3.93;;;10.80;99.90;;;;;;5097119;28;20105;-73
2023/12/24 10:08:42;;;;;;;23.80;4.00;;;10.90;99.90;;;;;;5096646;28;20052;-77
2023/12/24 10:11:20;;;;;;;22.53;3.87;;;10.90;99.90;;;;;;5097139;28;20056;-77
2023/12/24 10:14:06;;;;;;;16.57;2.87;;;10.90;99.90;;;;;;5096942;28;20400;-75
2023/12/24 10:16:43;;;;;;;24.00;3.17;;;10.90;99.90;;;;;;5094996;28;20294;-76
2023/12/24 10:19:09;;;;;;;17.10;3.07;;;10.90;99.90;;;;;;5096619;28;20372;-78
2023/12/24 10:21:35;;;;;;;15.97;3.57;;;11.00;99.90;;;;;;5079352;28;20355;-79
2023/12/24 10:24:07;;;;;;;19.40;3.20;;;11.00;99.90;;;;;;5097198;28;20583;-76
2023/12/24 10:26:32;;;;;;;19.33;4.10;;;11.10;99.90;;;;;;5096418;28;20081;-77
2023/12/24 10:28:58;;;;;;;19.60;3.60;;;11.10;99.90;;;;;;5096259;28;20278;-78
2023/12/24 10:31:24;;;;;;;17.43;3.77;;;11.10;99.90;;;;;;5095107;28;20052;-79
2023/12/24 10:33:58;;;;;;;17.80;3.30;;;11.10;99.90;;;;;;5094875;28;20058;-78
2023/12/24 10:36:24;;;;;;;18.42;3.70;;;11.10;99.90;;;;;;5095728;28;20472;-79
2023/12/24 10:38:50;;;;;;;18.87;3.40;;;11.20;99.90;;;;;;5095008;28;20046;-77
2023/12/24 10:41:15;;;;;;;14.80;2.80;;;11.20;99.90;;;;;;5094832;28;20134;-79
2023/12/24 10:43:41;;;;;;;22.80;4.30;;;11.20;99.90;;;;;;5096144;28;20380;-76
2023/12/24 10:46:07;;;;;;;20.13;3.83;;;11.30;99.90;;;;;;5094498;28;20131;-81
2023/12/24 10:48:32;;;;;;;26.00;4.17;;;11.20;99.90;;;;;;5094649;28;20048;-79
2023/12/24 10:50:58;;;;;;;20.43;3.87;;;11.20;99.90;;;;;;5095060;28;20047;-72
2023/12/24 10:53:24;;;;;;;23.53;7.60;;;11.20;99.90;;;;;;5094625;28;20055;-76
2023/12/24 10:55:55;;;;;;;20.77;4.17;;;11.20;99.90;;;;;;5095830;28;20396;-77
2023/12/24 10:58:47;;;;;;;22.00;3.50;;;11.20;99.90;;;;;;5094467;28;20048;-75
2023/12/24 11:01:15;;;;;;;22.00;3.47;;;11.20;99.90;;;;;;5087353;28;20330;-75
2023/12/24 11:03:47;;;;;;;17.70;3.73;;;11.20;99.90;;;;;;5095294;28;20293;-77
2023/12/24 11:06:38;;;;;;;24.50;4.23;;;11.20;99.90;;;;;;5095219;28;20403;-78
2023/12/24 11:09:06;;;;;;;19.30;3.33;;;11.20;99.90;;;;;;5094418;28;20282;-78
2023/12/24 11:11:54;;;;;;;20.53;3.87;;;11.20;99.90;;;;;;5095431;28;20325;-78
2023/12/24 11:14:45;;;;;;;18.27;4.00;;;11.20;99.90;;;;;;5095982;28;20335;-76
2023/12/24 11:17:39;;;;;;;22.33;3.77;;;11.20;99.90;;;;;;5095321;28;20298;-70
2023/12/24 11:20:26;;;;;;;21.53;3.27;;;11.20;99.90;;;;;;5095554;28;20285;-75
2023/12/24 11:23:04;;;;;;;16.97;3.20;;;11.20;99.90;;;;;;5095070;28;20290;-77
2023/12/24 11:25:44;;;;;;;24.10;3.80;;;11.20;99.90;;;;;;5094291;28;20737;-72
2023/12/24 11:28:23;;;;;;;18.93;3.87;;;11.20;99.90;;;;;;5094522;28;20332;-72
2023/12/24 11:30:51;;;;;;;22.73;3.83;;;11.20;99.90;;;;;;5095998;28;20611;-73
2023/12/24 11:33:32;;;;;;;22.47;3.97;;;11.30;99.90;;;;;;5094902;28;20294;-72
2023/12/24 11:36:04;;;;;;;22.40;3.87;;;11.30;99.90;;;;;;5094838;28;20290;-72
2023/12/24 11:38:35;;;;;;;20.67;4.03;;;11.30;99.90;;;;;;5095847;28;20286;-72
2023/12/24 11:41:12;;;;;;;18.70;3.60;;;11.30;99.90;;;;;;5094859;28;20286;-72
2023/12/24 11:43:42;;;;;;;16.47;3.90;;;11.30;99.90;;;;;;5094935;28;20278;-72
2023/12/24 11:46:09;;;;;;;18.50;3.93;;;11.30;99.90;;;;;;5094835;28;20302;-72
2023/12/24 11:48:35;;;;;;;16.60;4.03;;;11.30;99.90;;;;;;5093596;28;20277;-73
2023/12/24 11:51:08;;;;;;;30.53;4.00;;;11.30;99.90;;;;;;5094681;28;20334;-72
2023/12/24 11:53:38;;;;;;;23.30;4.63;;;11.30;99.90;;;;;;5094722;28;20281;-73
2023/12/24 11:56:17;;;;;;;22.77;3.73;;;11.30;99.90;;;;;;5093055;28;20369;-71
2023/12/24 11:59:00;;;;;;;21.37;4.17;;;11.30;99.90;;;;;;5093576;28;20290;-74
2023/12/24 12:01:31;;;;;;;24.40;4.27;;;11.30;99.90;;;;;;5095199;28;20275;-72
2023/12/24 12:03:59;;;;;;;20.13;3.00;;;11.30;99.90;;;;;;5094852;28;20274;-73
2023/12/24 12:06:35;;;;;;;17.23;3.30;;;11.40;99.90;;;;;;5094039;28;20361;-73
2023/12/24 12:09:06;;;;;;;23.03;4.57;;;11.40;99.90;;;;;;5094438;28;20364;-73
2023/12/24 12:11:32;;;;;;;22.60;4.00;;;11.40;99.90;;;;;;5094247;28;20286;-73
2023/12/24 12:14:01;;;;;;;23.47;3.63;;;11.40;99.90;;;;;;5093777;28;20833;-72
2023/12/24 12:16:27;;;;;;;17.97;3.83;;;11.40;99.90;;;;;;5094036;28;20313;-73
2023/12/24 12:18:53;;;;;;;21.77;3.30;;;11.40;99.90;;;;;;5094062;28;20380;-73
2023/12/24 12:21:19;;;;;;;24.30;4.17;;;11.40;99.90;;;;;;5094098;28;20274;-74
2023/12/24 12:23:44;;;;;;;19.77;3.70;;;11.40;99.90;;;;;;5094035;28;20145;-73
2023/12/24 12:26:10;;;;;;;18.70;4.10;;;11.40;99.90;;;;;;5094401;28;20043;-74
2023/12/24 12:28:36;;;;;;;21.73;3.37;;;11.40;99.90;;;;;;5093944;28;20048;-73
2023/12/24 12:31:03;;;;;;;21.80;3.30;;;11.40;99.90;;;;;;5093718;28;20044;-73
2023/12/24 12:33:29;;;;;;;18.97;4.20;;;11.40;99.90;;;;;;5093752;28;20292;-73
2023/12/24 12:35:55;;;;;;;19.77;3.23;;;11.40;99.90;;;;;;5094348;28;20611;-73
2023/12/24 12:38:22;;;;;;;17.43;3.53;;;11.40;99.90;;;;;;5094133;28;20336;-73
2023/12/24 12:40:49;;;;;;;23.33;4.13;;;11.40;99.90;;;;;;5093841;28;20285;-74
2023/12/24 12:43:16;;;;;;;15.70;3.20;;;11.50;99.90;;;;;;5092714;28;20626;-73